Al Hillah, Iraq
Current Conditions -  °F | °C
As of 8:00 PM on Sunday 23 Nov 2014 (Local Time) from ORNI Reporting Station
Clear Clear  
Wind Chill: 16°   Ceiling: Unl
Heat Index: 16°   Visibility: 6mi
Dew Point:   Wind: 7mph
Humidity: 48%   Direction: 340°NNW
Pressure: 30"   Gusts: NA
Location:  32.48°N, 44.46°E
Report Text: ORNI 231700Z 34006KT CAVOK 16/05 Q1016 NOSIG
Loading
Personal Weather Stations






























Interactive Weather Map New forecast layout! Learn more

10-Day Weather Forecast

Advertisements
Track Severe Weather on mobile